Time;durP1;ratioP1;P1;durP2;ratioP2;P2;SDS_P1;SDS_P2;PMS_P1;PMS_P2;Temp;Humidity;BMP_temperature;BMP_pressure;BME280_temperature;BME280_humidity;BME280_pressure;Samples;Min_cycle;Max_cycle;Signal;HPM_P1;HPM_P2
2023/06/10 00:02:13;;;;;;;9.53;5.07;;;13.00;70.50;;;;;;4971541;28;20195;-71
2023/06/10 00:04:41;;;;;;;13.07;4.80;;;13.10;70.00;;;;;;4972157;28;20648;-70
2023/06/10 00:07:08;;;;;;;7.57;4.10;;;13.20;69.50;;;;;;4971900;28;20191;-70
2023/06/10 00:09:39;;;;;;;8.90;4.37;;;13.30;69.00;;;;;;4970013;28;20544;-67
2023/06/10 00:12:09;;;;;;;12.50;5.17;;;13.30;69.00;;;;;;4971494;28;20182;-67
2023/06/10 00:14:41;;;;;;;8.20;4.50;;;13.40;68.90;;;;;;4970692;28;20187;-71
2023/06/10 00:17:11;;;;;;;11.23;4.30;;;13.70;68.30;;;;;;4967345;28;20179;-69
2023/06/10 00:19:41;;;;;;;11.70;4.17;;;13.80;67.90;;;;;;4972357;28;20175;-72
2023/06/10 00:22:10;;;;;;;11.23;3.80;;;13.80;67.40;;;;;;4971633;28;20183;-69
2023/06/10 00:24:37;;;;;;;10.37;4.73;;;14.10;66.90;;;;;;4968242;28;20191;-69
2023/06/10 00:27:06;;;;;;;8.67;4.20;;;14.10;66.00;;;;;;4952260;28;20191;-69
2023/06/10 00:29:34;;;;;;;10.77;3.90;;;14.30;65.60;;;;;;4968336;28;20216;-70
2023/06/10 00:32:01;;;;;;;6.47;3.37;;;14.30;64.50;;;;;;4968655;28;20199;-67
2023/06/10 00:34:32;;;;;;;7.53;3.27;;;14.50;64.30;;;;;;4966862;28;20262;-69
2023/06/10 00:36:59;;;;;;;7.80;3.37;;;14.50;62.60;;;;;;4970083;28;20193;-71
2023/06/10 00:39:26;;;;;;;5.20;2.90;;;14.60;61.50;;;;;;4973889;28;20189;-72
2023/06/10 00:41:54;;;;;;;6.37;2.53;;;14.80;60.80;;;;;;4969977;28;20665;-67
2023/06/10 00:44:21;;;;;;;8.93;3.10;;;14.80;59.70;;;;;;4975588;28;20189;-66
2023/06/10 00:46:51;;;;;;;6.60;2.87;;;14.90;59.50;;;;;;4972578;28;20194;-70
2023/06/10 00:49:18;;;;;;;4.13;2.60;;;15.00;58.80;;;;;;4969496;28;20197;-71
2023/06/10 00:51:46;;;;;;;8.00;3.10;;;15.10;58.90;;;;;;4972528;28;20597;-70
2023/06/10 00:54:13;;;;;;;6.70;3.00;;;15.20;60.10;;;;;;4970408;28;20187;-69
2023/06/10 00:56:42;;;;;;;6.83;2.83;;;15.30;57.60;;;;;;4973798;28;20194;-71
2023/06/10 00:59:10;;;;;;;7.70;3.30;;;15.40;56.40;;;;;;4970640;28;20260;-67
2023/06/10 01:01:38;;;;;;;5.60;2.43;;;15.60;56.40;;;;;;4972427;28;20190;-69
2023/06/10 01:04:05;;;;;;;5.97;2.07;;;15.60;54.80;;;;;;4974368;28;20217;-68
2023/06/10 01:06:55;;;;;;;3.63;2.00;;;15.60;53.60;;;;;;4970929;28;20253;-67
2023/06/10 01:09:46;;;;;;;4.87;1.90;;;15.60;52.80;;;;;;4975323;28;20186;-68
2023/06/10 01:12:35;;;;;;;4.87;1.80;;;15.70;52.50;;;;;;4973656;28;20269;-67
2023/06/10 01:15:03;;;;;;;4.53;1.90;;;15.70;49.80;;;;;;4974816;28;20193;-66
2023/06/10 01:17:31;;;;;;;6.33;2.03;;;15.80;49.60;;;;;;4971744;28;20192;-68
2023/06/10 01:19:59;;;;;;;6.90;2.20;;;15.80;49.70;;;;;;4974254;28;20190;-68
2023/06/10 01:22:32;;;;;;;3.80;1.70;;;15.90;49.60;;;;;;4975222;28;20657;-68
2023/06/10 01:25:00;;;;;;;6.30;1.80;;;15.90;49.60;;;;;;4965162;28;20717;-70
2023/06/10 01:27:34;;;;;;;5.07;2.00;;;16.10;49.60;;;;;;4965759;28;20191;-71
2023/06/10 01:30:18;;;;;;;4.20;1.53;;;16.30;49.70;;;;;;4974635;28;20318;-71
2023/06/10 01:32:51;;;;;;;5.77;1.80;;;16.60;49.00;;;;;;4972963;28;20224;-67
2023/06/10 01:35:21;;;;;;;2.17;1.40;;;16.50;48.20;;;;;;4974111;28;20849;-69
2023/06/10 01:37:50;;;;;;;5.60;1.40;;;16.40;47.50;;;;;;4975045;28;20548;-70
2023/06/10 01:40:17;;;;;;;3.63;1.67;;;16.70;48.00;;;;;;4974481;28;20226;-71
2023/06/10 01:42:45;;;;;;;3.13;1.60;;;16.80;47.00;;;;;;4974299;28;20280;-72
2023/06/10 01:45:12;;;;;;;5.97;1.70;;;17.00;46.30;;;;;;4973396;28;20648;-71
2023/06/10 01:47:40;;;;;;;7.43;1.77;;;16.80;46.50;;;;;;4974862;28;20534;-71
2023/06/10 01:50:07;;;;;;;9.07;1.87;;;16.90;46.30;;;;;;4974209;28;20221;-71
2023/06/10 01:52:35;;;;;;;5.67;1.40;;;17.00;46.90;;;;;;4968255;28;20223;-70
2023/06/10 01:55:02;;;;;;;3.47;1.40;;;17.10;46.20;;;;;;4974680;28;20187;-70
2023/06/10 01:57:30;;;;;;;4.10;1.53;;;17.00;45.00;;;;;;4974718;28;20193;-69
2023/06/10 01:59:57;;;;;;;4.63;1.60;;;16.80;45.30;;;;;;4974879;28;20192;-70
2023/06/10 02:02:25;;;;;;;5.33;1.70;;;17.10;45.50;;;;;;4973689;28;20667;-69
2023/06/10 02:04:52;;;;;;;3.63;1.30;;;17.20;44.50;;;;;;4974521;28;20203;-71
2023/06/10 02:07:19;;;;;;;2.97;1.13;;;17.30;44.40;;;;;;4974208;28;20664;-68
2023/06/10 02:09:46;;;;;;;5.33;1.60;;;17.20;43.80;;;;;;4974687;28;20214;-68
2023/06/10 02:12:14;;;;;;;4.03;1.33;;;17.30;43.90;;;;;;4974068;28;20244;-66
2023/06/10 02:14:41;;;;;;;7.07;1.33;;;17.50;43.10;;;;;;4974296;28;20190;-66
2023/06/10 02:17:12;;;;;;;2.53;1.40;;;17.80;42.90;;;;;;4974073;28;20190;-66
2023/06/10 02:19:42;;;;;;;2.90;1.37;;;17.80;41.90;;;;;;4974724;28;20186;-69
2023/06/10 02:22:10;;;;;;;6.43;1.50;;;17.90;41.90;;;;;;4972545;28;20531;-68
2023/06/10 02:24:38;;;;;;;3.37;1.47;;;18.10;42.40;;;;;;4971671;28;20182;-68
2023/06/10 02:27:06;;;;;;;2.43;1.03;;;18.30;40.90;;;;;;4970336;28;20191;-68
2023/06/10 02:29:35;;;;;;;3.77;1.50;;;18.20;39.60;;;;;;4956801;28;20214;-67
2023/06/10 02:32:03;;;;;;;3.43;1.33;;;18.00;39.70;;;;;;4973699;28;20186;-67
2023/06/10 02:34:31;;;;;;;2.60;1.47;;;17.90;40.50;;;;;;4973985;28;20182;-71
2023/06/10 02:36:58;;;;;;;4.50;1.70;;;18.10;40.00;;;;;;4973947;28;20186;-70
2023/06/10 02:39:25;;;;;;;2.83;1.30;;;18.20;40.20;;;;;;4973947;28;20541;-70
2023/06/10 02:41:52;;;;;;;2.50;1.63;;;18.20;39.60;;;;;;4973812;28;20190;-69
2023/06/10 02:44:21;;;;;;;5.37;1.40;;;18.00;40.80;;;;;;4973429;28;20272;-69
2023/06/10 02:46:48;;;;;;;4.87;1.40;;;17.80;38.80;;;;;;4973613;28;20190;-70
2023/06/10 02:49:15;;;;;;;2.13;1.10;;;17.80;38.30;;;;;;4973939;28;20185;-71
2023/06/10 02:51:43;;;;;;;2.70;1.13;;;18.20;39.10;;;;;;4973590;28;20277;-71
2023/06/10 02:54:10;;;;;;;2.67;1.30;;;18.20;38.90;;;;;;4973615;28;20179;-66
2023/06/10 02:56:41;;;;;;;7.43;1.60;;;18.10;39.50;;;;;;4973288;28;20191;-69
2023/06/10 02:59:08;;;;;;;1.93;1.03;;;18.20;40.40;;;;;;4973480;28;20186;-70
2023/06/10 03:01:37;;;;;;;5.33;1.13;;;18.30;39.60;;;;;;4973662;28;20621;-70
2023/06/10 03:04:08;;;;;;;4.07;1.03;;;18.20;39.60;;;;;;4973455;28;20199;-71
2023/06/10 03:06:36;;;;;;;4.17;1.00;;;18.10;39.10;;;;;;4969812;28;20325;-69
2023/06/10 03:09:04;;;;;;;3.53;1.23;;;18.10;39.20;;;;;;4973555;28;20197;-72
2023/06/10 03:11:31;;;;;;;2.57;1.40;;;18.20;39.30;;;;;;4972849;28;20312;-68
2023/06/10 03:13:59;;;;;;;3.93;1.63;;;18.10;39.50;;;;;;4973329;28;20178;-69
2023/06/10 03:16:27;;;;;;;2.60;1.30;;;18.00;39.00;;;;;;4973419;28;20210;-70
2023/06/10 03:18:54;;;;;;;4.97;1.23;;;18.20;38.40;;;;;;4970012;28;20194;-69
2023/06/10 03:21:22;;;;;;;3.40;1.03;;;18.20;38.80;;;;;;4972990;28;20948;-69
2023/06/10 03:23:49;;;;;;;7.80;1.23;;;18.20;39.50;;;;;;4971886;28;20221;-70
2023/06/10 03:26:17;;;;;;;3.77;1.27;;;18.40;39.60;;;;;;4973372;28;20541;-68
2023/06/10 03:28:44;;;;;;;3.93;1.10;;;18.70;39.30;;;;;;4968821;28;20211;-72
2023/06/10 03:31:11;;;;;;;3.30;1.50;;;18.70;40.00;;;;;;4972787;28;20719;-69
2023/06/10 03:33:39;;;;;;;2.87;1.20;;;19.00;38.90;;;;;;4972317;28;20178;-71
2023/06/10 03:36:07;;;;;;;4.30;1.30;;;19.30;38.30;;;;;;4972863;28;20187;-70
2023/06/10 03:38:34;;;;;;;2.03;1.07;;;19.40;38.40;;;;;;4972492;28;20187;-69
2023/06/10 03:41:01;;;;;;;3.03;1.27;;;19.60;37.70;;;;;;4972923;28;20187;-70
2023/06/10 03:43:29;;;;;;;3.47;1.20;;;19.60;37.50;;;;;;4972694;28;20269;-69
2023/06/10 03:45:56;;;;;;;1.83;1.20;;;19.30;37.80;;;;;;4973150;28;20187;-68
2023/06/10 03:48:23;;;;;;;4.17;1.17;;;19.40;37.40;;;;;;4972599;28;20198;-70
2023/06/10 03:50:51;;;;;;;4.50;1.70;;;20.00;37.40;;;;;;4973021;28;20281;-68
2023/06/10 03:53:19;;;;;;;3.10;1.27;;;20.50;36.30;;;;;;4982924;28;20230;-68
2023/06/10 03:55:46;;;;;;;3.20;1.40;;;21.00;35.60;;;;;;4973055;28;20194;-68
2023/06/10 03:58:14;;;;;;;4.03;1.27;;;21.30;34.60;;;;;;4972211;28;20182;-68
2023/06/10 04:00:42;;;;;;;4.20;1.47;;;21.50;34.70;;;;;;4971189;28;20576;-68
2023/06/10 04:03:15;;;;;;;2.77;1.20;;;21.10;35.60;;;;;;4972245;28;20194;-70
2023/06/10 04:05:42;;;;;;;4.73;1.43;;;21.60;34.50;;;;;;4971440;28;20187;-68
2023/06/10 04:08:10;;;;;;;3.23;1.30;;;22.20;32.90;;;;;;4974369;28;20596;-69
2023/06/10 04:10:37;;;;;;;5.83;1.20;;;22.00;33.30;;;;;;4973174;28;20242;-67
2023/06/10 04:13:05;;;;;;;1.57;0.90;;;21.80;33.60;;;;;;4974670;28;20629;-68
2023/06/10 04:15:35;;;;;;;3.67;1.20;;;21.50;33.60;;;;;;4968858;28;20186;-71
2023/06/10 04:18:02;;;;;;;2.60;1.10;;;21.60;34.10;;;;;;4976362;28;20186;-72
2023/06/10 04:20:29;;;;;;;3.37;1.10;;;21.70;34.30;;;;;;4975567;28;20189;-69
2023/06/10 04:22:56;;;;;;;4.27;1.03;;;22.00;33.30;;;;;;4974421;28;20637;-67
2023/06/10 04:25:24;;;;;;;2.50;1.10;;;21.90;33.40;;;;;;4975689;28;20612;-71
2023/06/10 04:27:51;;;;;;;5.03;1.57;;;21.80;33.40;;;;;;4966968;28;20210;-70
2023/06/10 04:30:19;;;;;;;2.63;1.27;;;21.90;33.00;;;;;;4970261;28;20689;-68
2023/06/10 04:32:46;;;;;;;5.97;1.20;;;21.70;33.70;;;;;;4973919;28;20183;-70
2023/06/10 04:35:15;;;;;;;4.43;1.30;;;21.80;34.10;;;;;;4974904;28;20249;-70
2023/06/10 04:37:42;;;;;;;2.93;1.20;;;22.30;33.60;;;;;;4975964;28;20179;-68
2023/06/10 04:40:10;;;;;;;3.10;1.20;;;22.80;32.90;;;;;;4975978;28;20197;-71
2023/06/10 04:42:37;;;;;;;4.10;1.57;;;23.10;32.20;;;;;;4975544;28;20672;-67
2023/06/10 04:45:05;;;;;;;5.10;1.20;;;23.00;32.10;;;;;;4975767;28;20186;-70
2023/06/10 04:47:33;;;;;;;3.17;1.17;;;23.20;32.20;;;;;;4975102;28;20248;-69
2023/06/10 04:50:02;;;;;;;3.93;1.10;;;23.40;30.40;;;;;;4975237;28;20214;-70
2023/06/10 04:52:29;;;;;;;4.67;1.20;;;23.30;31.20;;;;;;4972734;28;20288;-69
2023/06/10 04:54:59;;;;;;;3.73;1.10;;;23.70;31.40;;;;;;4975852;28;20415;-67
2023/06/10 04:57:26;;;;;;;3.20;1.20;;;24.20;31.10;;;;;;4971389;28;20552;-67
2023/06/10 04:59:54;;;;;;;5.27;1.70;;;23.20;31.00;;;;;;4975687;28;20190;-67
2023/06/10 05:02:21;;;;;;;5.13;1.10;;;23.50;31.20;;;;;;4972003;28;20203;-66
2023/06/10 05:04:49;;;;;;;3.00;1.20;;;23.80;31.10;;;;;;4974130;28;20191;-67
2023/06/10 05:07:16;;;;;;;3.77;1.50;;;23.60;31.80;;;;;;4972319;28;20186;-66
2023/06/10 05:09:43;;;;;;;3.17;1.00;;;24.40;30.50;;;;;;4975925;28;20218;-66
2023/06/10 05:12:15;;;;;;;3.17;1.20;;;24.30;30.50;;;;;;4974728;28;20191;-69
2023/06/10 05:14:42;;;;;;;3.23;1.47;;;24.30;30.20;;;;;;4975130;28;20183;-67
2023/06/10 05:17:09;;;;;;;2.60;1.10;;;24.60;29.10;;;;;;4973944;28;20244;-70
2023/06/10 05:19:37;;;;;;;3.57;1.10;;;24.00;30.00;;;;;;4975276;28;20219;-67
2023/06/10 05:22:05;;;;;;;3.63;1.20;;;23.20;31.30;;;;;;4975024;28;20673;-65
2023/06/10 05:24:32;;;;;;;7.17;1.50;;;23.40;30.90;;;;;;4975255;28;20209;-65
2023/06/10 05:26:59;;;;;;;4.60;1.60;;;23.70;30.50;;;;;;4974629;28;20190;-66
2023/06/10 05:29:26;;;;;;;4.23;1.60;;;23.60;31.10;;;;;;4973913;28;20221;-70
2023/06/10 05:31:56;;;;;;;3.37;1.40;;;23.90;29.80;;;;;;4975039;28;20186;-68
2023/06/10 05:34:24;;;;;;;3.63;1.13;;;23.70;30.40;;;;;;4973880;28;20187;-69
2023/06/10 05:36:51;;;;;;;4.40;1.40;;;23.10;30.40;;;;;;4971470;28;20190;-69
2023/06/10 05:39:18;;;;;;;3.10;1.10;;;24.00;29.70;;;;;;4973255;28;20231;-70
2023/06/10 05:41:46;;;;;;;5.87;1.40;;;24.20;29.30;;;;;;4975218;28;20191;-67
2023/06/10 05:44:13;;;;;;;4.67;1.40;;;24.30;29.20;;;;;;4968909;28;20200;-69
2023/06/10 05:46:40;;;;;;;4.67;1.40;;;24.30;29.00;;;;;;4974216;28;20175;-67
2023/06/10 05:49:08;;;;;;;3.37;1.20;;;24.50;28.90;;;;;;4974865;28;20242;-66
2023/06/10 05:51:36;;;;;;;5.67;1.27;;;24.90;28.10;;;;;;4974383;28;20222;-65
2023/06/10 05:54:04;;;;;;;3.10;1.10;;;24.60;28.90;;;;;;4977463;28;20217;-66
2023/06/10 05:56:31;;;;;;;5.13;1.40;;;24.00;30.30;;;;;;4973784;28;20208;-69
2023/06/10 05:58:59;;;;;;;5.33;1.50;;;23.70;30.90;;;;;;4974629;28;20179;-69
2023/06/10 06:01:26;;;;;;;5.67;1.90;;;23.40;31.80;;;;;;4968300;28;20657;-65
2023/06/10 06:03:53;;;;;;;6.67;2.30;;;22.80;34.20;;;;;;4973450;28;20232;-68
2023/06/10 06:06:21;;;;;;;8.43;2.20;;;21.30;37.60;;;;;;4974210;28;20245;-69
2023/06/10 06:08:48;;;;;;;7.77;2.57;;;20.70;39.60;;;;;;4974308;28;20743;-70
2023/06/10 06:11:15;;;;;;;7.20;2.50;;;20.00;41.50;;;;;;4974836;28;20245;-66
2023/06/10 06:13:42;;;;;;;5.17;2.07;;;19.40;43.20;;;;;;4971634;28;20194;-67
2023/06/10 06:16:10;;;;;;;3.67;1.90;;;19.00;44.10;;;;;;4968650;28;20590;-70
2023/06/10 06:18:37;;;;;;;6.57;2.40;;;18.70;44.60;;;;;;4973444;28;20183;-64
2023/06/10 06:21:04;;;;;;;6.23;1.87;;;18.50;45.90;;;;;;4971886;28;20182;-70
2023/06/10 06:23:32;;;;;;;7.57;1.90;;;18.40;46.30;;;;;;4970115;28;20204;-70
2023/06/10 06:25:59;;;;;;;6.80;1.90;;;18.40;46.70;;;;;;4973012;28;20182;-69
2023/06/10 06:28:31;;;;;;;6.60;2.13;;;18.30;47.10;;;;;;4970588;28;20557;-65
2023/06/10 06:30:59;;;;;;;6.80;2.17;;;18.10;47.60;;;;;;4970857;28;20256;-71
2023/06/10 06:33:26;;;;;;;9.20;2.10;;;17.80;48.20;;;;;;4973597;28;20322;-70
2023/06/10 06:35:53;;;;;;;3.53;1.57;;;17.60;49.00;;;;;;4966546;28;20693;-70
2023/06/10 06:38:20;;;;;;;6.87;2.27;;;17.40;49.60;;;;;;4973135;28;20194;-67
2023/06/10 06:40:48;;;;;;;7.83;2.70;;;17.20;50.10;;;;;;4973710;28;20198;-71
2023/06/10 06:43:16;;;;;;;6.80;1.93;;;17.10;50.60;;;;;;4973111;28;20240;-72
2023/06/10 06:45:43;;;;;;;5.23;2.30;;;17.00;51.20;;;;;;4973149;28;20193;-70
2023/06/10 06:48:11;;;;;;;12.97;5.23;;;16.80;52.10;;;;;;4973031;28;20198;-71
2023/06/10 06:50:38;;;;;;;15.73;6.10;;;16.70;52.30;;;;;;4972173;28;20226;-71
2023/06/10 06:53:06;;;;;;;12.27;5.57;;;16.40;53.50;;;;;;4971962;28;20234;-71
2023/06/10 06:55:33;;;;;;;10.57;4.10;;;16.30;54.10;;;;;;4973242;28;20194;-71
2023/06/10 06:58:03;;;;;;;12.40;4.20;;;16.20;54.20;;;;;;4972370;28;20194;-72
2023/06/10 07:00:31;;;;;;;16.30;4.67;;;16.00;55.00;;;;;;4972143;28;20285;-71
2023/06/10 07:02:59;;;;;;;13.67;5.17;;;15.90;54.90;;;;;;4973254;28;20197;-71
2023/06/10 07:05:27;;;;;;;13.27;5.47;;;15.80;55.50;;;;;;4970993;28;20277;-72
2023/06/10 07:07:55;;;;;;;14.43;6.57;;;15.80;55.40;;;;;;4972589;28;20185;-71
2023/06/10 07:10:25;;;;;;;17.93;6.67;;;15.60;56.00;;;;;;4973104;28;20217;-71
2023/06/10 07:12:52;;;;;;;15.17;6.30;;;15.50;56.10;;;;;;4972900;28;20266;-71
2023/06/10 07:15:20;;;;;;;15.40;5.60;;;15.40;56.80;;;;;;4971725;28;20193;-70
2023/06/10 07:17:47;;;;;;;10.60;5.10;;;15.30;57.20;;;;;;4970943;28;20712;-66
2023/06/10 07:20:15;;;;;;;13.27;5.57;;;15.20;57.20;;;;;;4970044;28;20196;-70
2023/06/10 07:22:42;;;;;;;11.03;5.10;;;15.20;57.60;;;;;;4972509;28;20664;-68
2023/06/10 07:25:10;;;;;;;10.27;3.83;;;15.20;57.90;;;;;;4973429;28;20194;-70
2023/06/10 07:27:38;;;;;;;10.60;4.27;;;15.10;57.90;;;;;;4967170;28;20191;-65
2023/06/10 07:30:10;;;;;;;10.37;4.20;;;14.90;58.30;;;;;;4970938;28;20233;-68
2023/06/10 07:32:38;;;;;;;9.87;4.43;;;14.90;58.70;;;;;;4970807;28;20191;-66
2023/06/10 07:35:10;;;;;;;12.13;4.70;;;14.80;59.20;;;;;;4972767;28;20230;-68
2023/06/10 07:37:38;;;;;;;9.23;3.83;;;14.80;59.50;;;;;;4969799;28;20257;-70
2023/06/10 07:40:06;;;;;;;8.33;3.80;;;14.70;59.80;;;;;;4971624;28;20186;-71
2023/06/10 07:42:35;;;;;;;6.43;3.90;;;14.70;60.30;;;;;;4971080;28;20277;-70
2023/06/10 07:45:03;;;;;;;5.03;3.30;;;14.60;60.40;;;;;;4971391;28;20262;-70
2023/06/10 07:47:31;;;;;;;9.47;3.40;;;14.60;60.80;;;;;;4972051;28;20534;-70
2023/06/10 07:49:58;;;;;;;10.03;4.20;;;14.60;60.60;;;;;;4970620;28;20253;-70
2023/06/10 07:52:26;;;;;;;9.47;3.47;;;14.60;60.90;;;;;;4969426;28;20222;-70
2023/06/10 07:54:53;;;;;;;5.83;3.10;;;14.50;60.60;;;;;;4972111;28;20182;-70
2023/06/10 07:57:20;;;;;;;10.57;3.73;;;14.40;61.00;;;;;;4969679;28;20658;-69
2023/06/10 07:59:48;;;;;;;9.47;3.90;;;14.30;61.40;;;;;;4971231;28;20195;-66
2023/06/10 08:02:16;;;;;;;10.07;3.73;;;14.20;61.90;;;;;;4967792;28;20708;-69
2023/06/10 08:04:43;;;;;;;6.47;3.13;;;14.20;62.10;;;;;;4971762;28;20197;-70
2023/06/10 08:07:10;;;;;;;5.87;3.50;;;14.20;62.40;;;;;;4971680;28;20219;-68
2023/06/10 08:09:37;;;;;;;7.70;3.80;;;14.10;62.80;;;;;;4971968;28;20202;-70
2023/06/10 08:12:06;;;;;;;11.70;4.40;;;14.10;62.90;;;;;;4967194;28;20226;-71
2023/06/10 08:14:33;;;;;;;8.90;4.50;;;14.00;63.10;;;;;;4969778;28;20211;-69
2023/06/10 08:17:00;;;;;;;10.93;4.80;;;13.90;63.40;;;;;;4971030;28;20187;-66
2023/06/10 08:19:28;;;;;;;11.60;5.73;;;14.00;63.70;;;;;;4969244;28;20198;-69
2023/06/10 08:21:55;;;;;;;11.93;5.60;;;13.90;64.20;;;;;;4972566;28;20185;-68
2023/06/10 08:24:22;;;;;;;11.13;5.03;;;13.90;64.10;;;;;;4970000;28;20355;-67
2023/06/10 08:26:50;;;;;;;11.97;5.70;;;13.80;64.30;;;;;;4970657;28;20182;-71
2023/06/10 08:29:17;;;;;;;14.27;5.50;;;13.80;64.70;;;;;;4967285;28;20247;-68
2023/06/10 08:31:45;;;;;;;9.77;5.00;;;13.70;64.70;;;;;;4970187;28;20211;-72
2023/06/10 08:34:12;;;;;;;11.73;4.60;;;13.60;65.00;;;;;;4971180;28;20171;-71
2023/06/10 08:36:39;;;;;;;13.60;5.53;;;13.60;65.20;;;;;;4969322;28;20195;-69
2023/06/10 08:39:07;;;;;;;12.90;5.60;;;13.50;65.40;;;;;;4970959;28;20676;-70
2023/06/10 08:41:41;;;;;;;12.90;5.77;;;13.50;65.70;;;;;;4971577;28;20183;-68
2023/06/10 08:44:22;;;;;;;12.87;4.90;;;13.50;65.90;;;;;;4969696;28;20186;-70
2023/06/10 08:46:51;;;;;;;12.83;5.00;;;13.40;66.20;;;;;;4969505;28;20213;-69
2023/06/10 08:49:23;;;;;;;13.70;7.30;;;13.40;66.30;;;;;;4971986;28;20202;-71
2023/06/10 08:51:59;;;;;;;17.07;7.60;;;13.40;66.60;;;;;;4972289;28;20329;-67
2023/06/10 08:54:33;;;;;;;17.27;9.13;;;13.30;67.40;;;;;;4967283;28;20187;-71
2023/06/10 08:57:02;;;;;;;17.90;10.10;;;13.20;67.90;;;;;;4973902;28;20183;-65
2023/06/10 08:59:30;;;;;;;18.27;10.50;;;13.20;68.50;;;;;;4973540;28;20190;-70
2023/06/10 09:01:58;;;;;;;14.90;9.80;;;13.20;68.60;;;;;;4973344;28;20377;-70
2023/06/10 09:04:26;;;;;;;24.47;12.53;;;13.20;68.50;;;;;;4975072;28;20187;-71
2023/06/10 09:06:53;;;;;;;21.63;13.00;;;13.10;68.70;;;;;;4974803;28;20191;-71
2023/06/10 09:09:21;;;;;;;18.47;10.47;;;13.10;68.40;;;;;;4971549;28;20270;-74
2023/06/10 09:11:48;;;;;;;15.47;10.03;;;13.10;68.30;;;;;;4973867;28;20296;-71
2023/06/10 09:14:16;;;;;;;18.47;11.53;;;13.00;68.50;;;;;;4974991;28;20194;-71
2023/06/10 09:16:45;;;;;;;18.97;12.67;;;13.00;68.60;;;;;;4975353;28;20652;-71
2023/06/10 09:19:14;;;;;;;22.00;12.37;;;12.90;69.10;;;;;;4973870;28;20637;-70
2023/06/10 09:21:41;;;;;;;19.43;12.07;;;12.80;69.60;;;;;;4974311;28;20191;-70
2023/06/10 09:24:09;;;;;;;23.97;12.43;;;12.80;70.00;;;;;;4973581;28;20269;-70
2023/06/10 09:26:36;;;;;;;21.40;11.67;;;12.80;70.20;;;;;;4975289;28;20186;-66
2023/06/10 09:29:11;;;;;;;23.73;12.17;;;12.80;70.90;;;;;;4975166;28;20186;-69
2023/06/10 09:31:40;;;;;;;21.63;13.10;;;12.80;70.70;;;;;;4973251;28;20365;-67
2023/06/10 09:34:13;;;;;;;21.07;12.83;;;12.80;71.10;;;;;;4965672;28;20234;-69
2023/06/10 09:36:41;;;;;;;24.13;13.47;;;12.70;71.30;;;;;;4970903;28;20265;-65
2023/06/10 09:39:18;;;;;;;23.80;13.60;;;12.70;71.70;;;;;;4973959;28;20182;-71
2023/06/10 09:41:46;;;;;;;23.53;13.90;;;12.60;71.80;;;;;;4974872;28;20197;-70
2023/06/10 09:44:15;;;;;;;28.87;16.77;;;12.50;72.10;;;;;;4970495;28;20183;-67
2023/06/10 09:46:45;;;;;;;27.93;15.87;;;12.50;72.10;;;;;;4974927;28;20197;-66
2023/06/10 09:49:12;;;;;;;22.77;14.00;;;12.50;72.50;;;;;;4970222;28;20717;-70
2023/06/10 09:51:54;;;;;;;26.67;14.57;;;12.50;72.90;;;;;;4975727;28;20219;-66
2023/06/10 09:54:22;;;;;;;23.70;12.57;;;12.40;72.40;;;;;;4972108;28;20541;-71
2023/06/10 09:56:53;;;;;;;24.17;12.77;;;12.40;72.60;;;;;;4970577;28;20540;-67
2023/06/10 09:59:34;;;;;;;22.33;13.07;;;12.30;72.90;;;;;;4972483;28;20183;-71
2023/06/10 10:02:02;;;;;;;23.73;13.10;;;12.30;72.80;;;;;;4967997;28;20243;-66
2023/06/10 10:04:29;;;;;;;25.37;14.50;;;12.30;73.00;;;;;;4968999;28;20198;-71
2023/06/10 10:06:59;;;;;;;33.77;18.67;;;12.30;73.20;;;;;;4968942;28;20234;-70
2023/06/10 10:09:26;;;;;;;33.97;17.97;;;12.30;73.20;;;;;;4970908;28;20546;-68
2023/06/10 10:11:55;;;;;;;39.97;19.73;;;12.30;73.30;;;;;;4968217;28;20680;-70
2023/06/10 10:14:23;;;;;;;32.97;18.80;;;12.30;73.20;;;;;;4973981;28;20202;-67
2023/06/10 10:16:54;;;;;;;26.07;18.10;;;12.20;73.30;;;;;;4974405;28;20186;-70
2023/06/10 10:19:28;;;;;;;29.80;18.17;;;12.20;73.50;;;;;;4972748;28;20191;-70
2023/06/10 10:22:17;;;;;;;33.80;19.27;;;12.20;74.20;;;;;;4974351;28;20189;-70
2023/06/10 10:24:51;;;;;;;33.07;20.00;;;12.10;74.00;;;;;;4970932;28;20182;-70
2023/06/10 10:27:28;;;;;;;34.53;19.33;;;12.00;74.20;;;;;;4969415;28;20269;-70
2023/06/10 10:29:58;;;;;;;28.00;16.57;;;11.90;74.70;;;;;;4970432;28;20338;-69
2023/06/10 10:32:40;;;;;;;29.80;15.63;;;11.90;74.80;;;;;;4970437;28;20201;-68
2023/06/10 10:35:17;;;;;;;34.10;17.33;;;11.80;75.20;;;;;;4968705;28;20230;-70
2023/06/10 10:37:49;;;;;;;30.07;17.13;;;11.90;75.30;;;;;;4969693;28;20183;-70
2023/06/10 10:40:17;;;;;;;35.17;18.23;;;11.90;74.90;;;;;;4970122;28;20210;-71
2023/06/10 10:42:45;;;;;;;32.23;16.20;;;11.80;75.00;;;;;;4967646;28;20178;-71
2023/06/10 10:45:12;;;;;;;31.80;17.20;;;11.80;75.20;;;;;;4968911;28;20204;-71
2023/06/10 10:47:41;;;;;;;27.27;16.00;;;11.70;75.20;;;;;;4967972;28;20270;-69
2023/06/10 10:50:16;;;;;;;34.13;16.93;;;11.70;75.50;;;;;;4971945;28;20222;-70
2023/06/10 10:52:59;;;;;;;25.70;15.73;;;11.70;75.50;;;;;;4969487;28;20227;-71
2023/06/10 10:55:27;;;;;;;32.57;16.40;;;11.60;75.60;;;;;;4970007;28;20187;-70
2023/06/10 10:58:04;;;;;;;24.00;13.33;;;11.60;76.00;;;;;;4965825;28;20190;-70
2023/06/10 11:00:36;;;;;;;24.70;14.20;;;11.60;75.60;;;;;;4967588;28;20186;-66
2023/06/10 11:03:07;;;;;;;23.17;13.37;;;11.50;75.80;;;;;;4970519;28;20183;-66
2023/06/10 11:05:48;;;;;;;24.03;13.63;;;11.50;76.00;;;;;;4971849;28;20544;-69
2023/06/10 11:08:36;;;;;;;25.40;12.93;;;11.60;76.10;;;;;;4971163;28;20222;-67
2023/06/10 11:11:25;;;;;;;20.27;12.60;;;11.60;76.20;;;;;;4967841;28;20234;-69
2023/06/10 11:14:09;;;;;;;26.40;13.90;;;11.50;76.00;;;;;;4969109;28;20178;-67
2023/06/10 11:16:44;;;;;;;29.33;15.20;;;11.50;76.10;;;;;;4971251;28;20233;-70
2023/06/10 11:19:31;;;;;;;26.50;15.63;;;11.50;76.10;;;;;;4968152;28;20201;-69
2023/06/10 11:22:03;;;;;;;24.47;14.10;;;11.50;76.20;;;;;;4968415;28;20187;-65
2023/06/10 11:24:31;;;;;;;21.37;13.53;;;11.60;76.50;;;;;;4969435;28;20191;-67
2023/06/10 11:27:26;;;;;;;25.63;14.50;;;11.50;76.40;;;;;;4968489;28;20221;-69
2023/06/10 11:30:07;;;;;;;24.70;15.13;;;11.50;75.90;;;;;;4971163;28;20211;-71
2023/06/10 11:32:35;;;;;;;24.27;14.63;;;11.50;76.20;;;;;;4971019;28;20241;-71
2023/06/10 11:35:07;;;;;;;21.33;13.27;;;11.50;76.20;;;;;;4966365;28;20191;-69
2023/06/10 11:37:34;;;;;;;29.47;14.77;;;11.50;76.30;;;;;;4967144;28;20683;-70
2023/06/10 11:40:02;;;;;;;25.63;13.53;;;11.40;76.30;;;;;;4967323;28;20179;-70
2023/06/10 11:42:29;;;;;;;26.17;13.13;;;11.50;76.20;;;;;;4972405;28;20201;-71
2023/06/10 11:44:57;;;;;;;23.90;12.60;;;11.40;76.10;;;;;;4973006;28;20179;-70
2023/06/10 11:47:28;;;;;;;23.10;10.07;;;11.50;76.40;;;;;;4969014;28;20221;-71
2023/06/10 11:49:59;;;;;;;13.57;8.53;;;11.40;76.20;;;;;;4971246;28;20214;-71
2023/06/10 11:52:37;;;;;;;13.53;7.93;;;11.50;75.90;;;;;;4969045;28;20230;-71
2023/06/10 11:55:05;;;;;;;14.27;7.77;;;11.50;75.20;;;;;;4968857;28;20266;-72
2023/06/10 11:57:35;;;;;;;15.97;7.27;;;11.50;74.90;;;;;;4970101;28;20196;-70
2023/06/10 12:00:09;;;;;;;15.73;9.07;;;11.50;74.50;;;;;;4970613;28;20186;-71
2023/06/10 12:02:36;;;;;;;19.00;9.70;;;11.40;74.40;;;;;;4971373;28;20198;-71
2023/06/10 12:05:19;;;;;;;16.13;7.87;;;11.40;74.40;;;;;;4968816;28;20194;-70
2023/06/10 12:07:46;;;;;;;14.97;7.60;;;11.50;74.70;;;;;;4971457;28;20189;-70
2023/06/10 12:10:13;;;;;;;14.40;7.57;;;11.40;74.60;;;;;;4970794;28;20233;-71
2023/06/10 12:12:41;;;;;;;13.10;6.87;;;11.40;74.70;;;;;;4971648;28;20191;-70
2023/06/10 12:15:09;;;;;;;16.87;6.47;;;11.40;74.50;;;;;;4972257;28;20663;-70
2023/06/10 12:17:37;;;;;;;15.37;6.20;;;11.30;74.30;;;;;;4969433;28;20198;-70
2023/06/10 12:20:11;;;;;;;14.57;6.60;;;11.30;74.50;;;;;;4972120;28;20187;-71
2023/06/10 12:22:43;;;;;;;15.20;8.50;;;11.20;74.70;;;;;;4969852;28;20235;-70
2023/06/10 12:25:11;;;;;;;14.63;8.47;;;11.20;75.00;;;;;;4971632;28;20217;-71
2023/06/10 12:27:40;;;;;;;18.03;9.00;;;11.20;75.40;;;;;;4971857;28;20187;-69
2023/06/10 12:30:08;;;;;;;18.67;9.40;;;11.30;75.20;;;;;;4972891;28;20225;-70
2023/06/10 12:32:43;;;;;;;15.67;8.67;;;11.20;75.30;;;;;;4975706;28;20254;-70
2023/06/10 12:35:13;;;;;;;11.90;7.50;;;11.20;75.20;;;;;;4975857;28;20189;-66
2023/06/10 12:37:41;;;;;;;13.80;7.27;;;11.20;75.20;;;;;;4975975;28;20241;-69
2023/06/10 12:40:09;;;;;;;13.70;7.37;;;11.10;75.40;;;;;;4975391;28;20233;-70
2023/06/10 12:42:37;;;;;;;13.17;6.43;;;11.10;75.50;;;;;;4976677;28;20183;-65
2023/06/10 12:45:08;;;;;;;12.27;6.03;;;11.10;75.40;;;;;;4975877;28;20189;-67
2023/06/10 12:47:41;;;;;;;10.23;5.57;;;11.00;75.00;;;;;;4972640;28;20262;-65
2023/06/10 12:50:09;;;;;;;11.40;6.10;;;10.90;75.20;;;;;;4975464;28;20245;-68
2023/06/10 12:52:37;;;;;;;11.03;5.90;;;10.90;74.80;;;;;;4975051;28;20238;-67